sensor_id;sensor_type;location;lat;lon;timestamp;pressure;altitude;pressure_sealevel;temperature;humidity
8366;BME280;4220;42.502;24.188;2023-02-28T00:00:20;95700.78;;;8.60;100.00
8366;BME280;4220;42.502;24.188;2023-02-28T00:02:49;95702.75;;;8.57;100.00
8366;BME280;4220;42.502;24.188;2023-02-28T00:05:18;95711.97;;;8.62;100.00
8366;BME280;4220;42.502;24.188;2023-02-28T00:07:46;95715.25;;;8.70;100.00
8366;BME280;4220;42.502;24.188;2023-02-28T00:10:15;95707.44;;;8.90;100.00
8366;BME280;4220;42.502;24.188;2023-02-28T00:12:44;95703.91;;;9.17;100.00
8366;BME280;4220;42.502;24.188;2023-02-28T00:15:11;95706.81;;;9.35;100.00
8366;BME280;4220;42.502;24.188;2023-02-28T00:17:38;95708.50;;;9.49;100.00
8366;BME280;4220;42.502;24.188;2023-02-28T00:20:09;95712.59;;;9.58;100.00
8366;BME280;4220;42.502;24.188;2023-02-28T00:22:38;95719.34;;;9.67;100.00
8366;BME280;4220;42.502;24.188;2023-02-28T00:25:06;95716.09;;;9.78;100.00
8366;BME280;4220;42.502;24.188;2023-02-28T00:27:33;95713.28;;;9.86;100.00
8366;BME280;4220;42.502;24.188;2023-02-28T00:30:01;95710.00;;;9.91;100.00
8366;BME280;4220;42.502;24.188;2023-02-28T00:32:28;95714.69;;;9.96;100.00
8366;BME280;4220;42.502;24.188;2023-02-28T00:34:55;95678.41;;;9.76;100.00
8366;BME280;4220;42.502;24.188;2023-02-28T00:37:23;95722.66;;;9.96;100.00
8366;BME280;4220;42.502;24.188;2023-02-28T00:39:50;95715.31;;;9.98;100.00
8366;BME280;4220;42.502;24.188;2023-02-28T00:42:17;95717.16;;;9.97;100.00
8366;BME280;4220;42.502;24.188;2023-02-28T00:44:44;95714.31;;;9.92;100.00
8366;BME280;4220;42.502;24.188;2023-02-28T00:47:11;95714.69;;;9.96;100.00
8366;BME280;4220;42.502;24.188;2023-02-28T00:49:38;95709.00;;;9.99;100.00
8366;BME280;4220;42.502;24.188;2023-02-28T00:52:05;95672.47;;;9.55;100.00
8366;BME280;4220;42.502;24.188;2023-02-28T00:54:33;95714.66;;;9.69;100.00
8366;BME280;4220;42.502;24.188;2023-02-28T00:57:00;95711.56;;;9.53;100.00
8366;BME280;4220;42.502;24.188;2023-02-28T00:59:27;95714.38;;;9.45;100.00
8366;BME280;4220;42.502;24.188;2023-02-28T01:01:54;95703.94;;;9.24;100.00
8366;BME280;4220;42.502;24.188;2023-02-28T01:04:21;95700.00;;;9.06;100.00
8366;BME280;4220;42.502;24.188;2023-02-28T01:06:48;95702.06;;;9.11;100.00
8366;BME280;4220;42.502;24.188;2023-02-28T01:09:15;95709.47;;;9.29;100.00
8366;BME280;4220;42.502;24.188;2023-02-28T01:11:43;95710.69;;;9.39;100.00
8366;BME280;4220;42.502;24.188;2023-02-28T01:14:12;95708.72;;;9.48;100.00
8366;BME280;4220;42.502;24.188;2023-02-28T01:16:40;95708.72;;;9.61;100.00
8366;BME280;4220;42.502;24.188;2023-02-28T01:19:07;95692.00;;;9.54;100.00
8366;BME280;4220;42.502;24.188;2023-02-28T01:21:34;95716.09;;;9.78;100.00
8366;BME280;4220;42.502;24.188;2023-02-28T01:24:01;95718.97;;;9.70;100.00
8366;BME280;4220;42.502;24.188;2023-02-28T01:26:28;95636.97;;;9.23;100.00
8366;BME280;4220;42.502;24.188;2023-02-28T01:28:57;95698.59;;;9.77;100.00
8366;BME280;4220;42.502;24.188;2023-02-28T01:31:24;95698.59;;;9.91;100.00
8366;BME280;4220;42.502;24.188;2023-02-28T01:33:51;95689.63;;;9.98;100.00
8366;BME280;4220;42.502;24.188;2023-02-28T01:36:20;95662.13;;;9.86;100.00
8366;BME280;4220;42.502;24.188;2023-02-28T01:38:47;95681.50;;;10.13;100.00
8366;BME280;4220;42.502;24.188;2023-02-28T01:41:17;95672.09;;;10.10;100.00
8366;BME280;4220;42.502;24.188;2023-02-28T01:44:01;95692.72;;;10.15;100.00
8366;BME280;4220;42.502;24.188;2023-02-28T01:46:33;95699.41;;;9.84;100.00
8366;BME280;4220;42.502;24.188;2023-02-28T01:49:05;95705.91;;;9.69;100.00
8366;BME280;4220;42.502;24.188;2023-02-28T01:51:37;95704.25;;;9.55;100.00
8366;BME280;4220;42.502;24.188;2023-02-28T01:54:08;95700.72;;;9.41;100.00
8366;BME280;4220;42.502;24.188;2023-02-28T01:56:42;95695.47;;;9.48;100.00
8366;BME280;4220;42.502;24.188;2023-02-28T01:59:13;95696.47;;;9.53;100.00
8366;BME280;4220;42.502;24.188;2023-02-28T02:01:40;95688.97;;;9.57;100.00
8366;BME280;4220;42.502;24.188;2023-02-28T02:04:08;95695.13;;;9.70;100.00
8366;BME280;4220;42.502;24.188;2023-02-28T02:06:38;95690.44;;;9.72;100.00
8366;BME280;4220;42.502;24.188;2023-02-28T02:09:05;95705.09;;;9.75;100.00
8366;BME280;4220;42.502;24.188;2023-02-28T02:11:34;95698.78;;;9.69;100.00
8366;BME280;4220;42.502;24.188;2023-02-28T02:14:15;95703.88;;;9.77;100.00
8366;BME280;4220;42.502;24.188;2023-02-28T02:16:57;95703.88;;;9.77;100.00
8366;BME280;4220;42.502;24.188;2023-02-28T02:19:59;95713.22;;;9.60;100.00
8366;BME280;4220;42.502;24.188;2023-02-28T02:22:58;95719.31;;;9.61;100.00
8366;BME280;4220;42.502;24.188;2023-02-28T02:25:39;95721.38;;;9.65;100.00
8366;BME280;4220;42.502;24.188;2023-02-28T02:28:40;95716.06;;;9.59;100.00
8366;BME280;4220;42.502;24.188;2023-02-28T02:31:32;95727.84;;;9.56;100.00
8366;BME280;4220;42.502;24.188;2023-02-28T02:34:29;95729.88;;;9.48;100.00
8366;BME280;4220;42.502;24.188;2023-02-28T02:37:08;95735.19;;;9.48;100.00
8366;BME280;4220;42.502;24.188;2023-02-28T02:39:44;95736.00;;;9.48;100.00
8366;BME280;4220;42.502;24.188;2023-02-28T02:42:21;95731.88;;;9.33;100.00
8366;BME280;4220;42.502;24.188;2023-02-28T02:44:55;95736.53;;;9.31;100.00
8366;BME280;4220;42.502;24.188;2023-02-28T02:47:26;95742.75;;;9.10;100.00
8366;BME280;4220;42.502;24.188;2023-02-28T02:49:58;95749.22;;;9.01;100.00
8366;BME280;4220;42.502;24.188;2023-02-28T02:52:31;95744.53;;;9.03;100.00
8366;BME280;4220;42.502;24.188;2023-02-28T02:55:00;95760.28;;;9.17;100.00
8366;BME280;4220;42.502;24.188;2023-02-28T02:57:33;95753.44;;;9.30;100.00
8366;BME280;4220;42.502;24.188;2023-02-28T03:00:04;95766.94;;;9.48;100.00
8366;BME280;4220;42.502;24.188;2023-02-28T03:02:35;95771.84;;;9.51;100.00
8366;BME280;4220;42.502;24.188;2023-02-28T03:05:07;95782.69;;;9.62;100.00
8366;BME280;4220;42.502;24.188;2023-02-28T03:07:35;95776.13;;;9.52;100.00
8366;BME280;4220;42.502;24.188;2023-02-28T03:10:02;95787.38;;;9.67;100.00
8366;BME280;4220;42.502;24.188;2023-02-28T03:12:37;95795.16;;;9.75;100.00
8366;BME280;4220;42.502;24.188;2023-02-28T03:15:12;95793.13;;;9.77;100.00
8366;BME280;4220;42.502;24.188;2023-02-28T03:17:55;95795.94;;;9.69;100.00
8366;BME280;4220;42.502;24.188;2023-02-28T03:20:35;95793.28;;;9.69;100.00
8366;BME280;4220;42.502;24.188;2023-02-28T03:23:13;95790.88;;;9.74;100.00
8366;BME280;4220;42.502;24.188;2023-02-28T03:25:52;95793.94;;;9.77;100.00
8366;BME280;4220;42.502;24.188;2023-02-28T03:28:29;95800.47;;;9.81;100.00
8366;BME280;4220;42.502;24.188;2023-02-28T03:31:03;95804.38;;;9.92;100.00
8366;BME280;4220;42.502;24.188;2023-02-28T03:33:38;95776.19;;;9.65;100.00
8366;BME280;4220;42.502;24.188;2023-02-28T03:36:11;95774.91;;;9.54;100.00
8366;BME280;4220;42.502;24.188;2023-02-28T03:38:42;95811.66;;;9.77;100.00
8366;BME280;4220;42.502;24.188;2023-02-28T03:41:14;95804.50;;;9.64;100.00
8366;BME280;4220;42.502;24.188;2023-02-28T03:43:49;95810.25;;;9.74;100.00
8366;BME280;4220;42.502;24.188;2023-02-28T03:46:20;95815.16;;;9.84;100.00
8366;BME280;4220;42.502;24.188;2023-02-28T03:48:53;95808.84;;;9.85;100.00
8366;BME280;4220;42.502;24.188;2023-02-28T03:51:24;95778.41;;;9.61;100.00
8366;BME280;4220;42.502;24.188;2023-02-28T03:53:56;95830.22;;;9.77;100.00
8366;BME280;4220;42.502;24.188;2023-02-28T03:56:27;95829.97;;;9.65;100.00
8366;BME280;4220;42.502;24.188;2023-02-28T03:59:01;95832.19;;;9.62;100.00
8366;BME280;4220;42.502;24.188;2023-02-28T04:01:32;95824.44;;;9.60;100.00
8366;BME280;4220;42.502;24.188;2023-02-28T04:04:00;95836.47;;;9.63;100.00
8366;BME280;4220;42.502;24.188;2023-02-28T04:06:31;95829.47;;;9.49;100.00
8366;BME280;4220;42.502;24.188;2023-02-28T04:08:58;95803.94;;;9.35;100.00
8366;BME280;4220;42.502;24.188;2023-02-28T04:11:31;95837.69;;;9.60;100.00
8366;BME280;4220;42.502;24.188;2023-02-28T04:14:00;95842.78;;;9.68;100.00
8366;BME280;4220;42.502;24.188;2023-02-28T04:16:27;95837.50;;;9.68;100.00
8366;BME280;4220;42.502;24.188;2023-02-28T04:18:54;95829.78;;;9.73;100.00
8366;BME280;4220;42.502;24.188;2023-02-28T04:21:28;95849.81;;;9.89;100.00
8366;BME280;4220;42.502;24.188;2023-02-28T04:23:55;95852.47;;;9.89;100.00
8366;BME280;4220;42.502;24.188;2023-02-28T04:26:28;95852.69;;;9.94;100.00
8366;BME280;4220;42.502;24.188;2023-02-28T04:28:56;95857.16;;;9.87;100.00
8366;BME280;4220;42.502;24.188;2023-02-28T04:31:22;95853.09;;;9.91;100.00
8366;BME280;4220;42.502;24.188;2023-02-28T04:33:49;95818.75;;;9.63;100.00
8366;BME280;4220;42.502;24.188;2023-02-28T04:36:16;95860.63;;;9.88;100.00
8366;BME280;4220;42.502;24.188;2023-02-28T04:38:45;95872.59;;;9.77;100.00
8366;BME280;4220;42.502;24.188;2023-02-28T04:41:12;95824.97;;;9.43;100.00
8366;BME280;4220;42.502;24.188;2023-02-28T04:43:40;95868.06;;;9.64;100.00
8366;BME280;4220;42.502;24.188;2023-02-28T04:46:07;95864.56;;;9.57;100.00
8366;BME280;4220;42.502;24.188;2023-02-28T04:48:36;95865.91;;;9.40;100.00
8366;BME280;4220;42.502;24.188;2023-02-28T04:51:04;95867.88;;;9.32;100.00
8366;BME280;4220;42.502;24.188;2023-02-28T04:53:31;95869.91;;;9.36;100.00
8366;BME280;4220;42.502;24.188;2023-02-28T04:55:59;95852.59;;;9.34;100.00
8366;BME280;4220;42.502;24.188;2023-02-28T04:58:26;95865.91;;;9.40;100.00
8366;BME280;4220;42.502;24.188;2023-02-28T05:01:01;95867.94;;;9.45;100.00
8366;BME280;4220;42.502;24.188;2023-02-28T05:03:29;95870.81;;;9.43;100.00
8366;BME280;4220;42.502;24.188;2023-02-28T05:05:56;95882.78;;;9.39;100.00
8366;BME280;4220;42.502;24.188;2023-02-28T05:08:23;95884.66;;;9.45;100.00
8366;BME280;4220;42.502;24.188;2023-02-28T05:10:50;95876.88;;;9.37;100.00
8366;BME280;4220;42.502;24.188;2023-02-28T05:13:18;95883.81;;;9.38;100.00
8366;BME280;4220;42.502;24.188;2023-02-28T05:15:45;95888.03;;;9.33;100.00
8366;BME280;4220;42.502;24.188;2023-02-28T05:18:12;95895.06;;;9.19;100.00
8366;BME280;4220;42.502;24.188;2023-02-28T05:20:39;95901.25;;;9.26;100.00
8366;BME280;4220;42.502;24.188;2023-02-28T05:23:06;95906.53;;;9.26;100.00
8366;BME280;4220;42.502;24.188;2023-02-28T05:25:33;95895.47;;;9.16;100.00
8366;BME280;4220;42.502;24.188;2023-02-28T05:27:59;95908.59;;;9.03;100.00
8366;BME280;4220;42.502;24.188;2023-02-28T05:30:28;95893.78;;;8.87;100.00
8366;BME280;4220;42.502;24.188;2023-02-28T05:32:55;95901.19;;;8.71;100.00
8366;BME280;4220;42.502;24.188;2023-02-28T05:35:22;95906.34;;;8.79;100.00
8366;BME280;4220;42.502;24.188;2023-02-28T05:37:49;95914.47;;;8.77;100.00
8366;BME280;4220;42.502;24.188;2023-02-28T05:40:16;95911.81;;;8.77;100.00
8366;BME280;4220;42.502;24.188;2023-02-28T05:42:44;95927.25;;;8.74;100.00
8366;BME280;4220;42.502;24.188;2023-02-28T05:45:11;95935.13;;;8.88;100.00
8366;BME280;4220;42.502;24.188;2023-02-28T05:47:40;95930.28;;;8.92;100.00
8366;BME280;4220;42.502;24.188;2023-02-28T05:50:08;95932.53;;;8.95;100.00
8366;BME280;4220;42.502;24.188;2023-02-28T05:52:35;95931.94;;;8.99;100.00
8366;BME280;4220;42.502;24.188;2023-02-28T05:55:03;95936.94;;;9.09;100.00
8366;BME280;4220;42.502;24.188;2023-02-28T05:57:30;95937.41;;;9.19;100.00
8366;BME280;4220;42.502;24.188;2023-02-28T05:59:57;95939.53;;;9.30;100.00
8366;BME280;4220;42.502;24.188;2023-02-28T06:02:24;95941.59;;;9.35;100.00
8366;BME280;4220;42.502;24.188;2023-02-28T06:04:52;95938.81;;;9.43;100.00
8366;BME280;4220;42.502;24.188;2023-02-28T06:07:19;95938.75;;;9.36;100.00
8366;BME280;4220;42.502;24.188;2023-02-28T06:09:47;95926.50;;;9.29;100.00
8366;BME280;4220;42.502;24.188;2023-02-28T06:12:14;95944.03;;;9.36;100.00
8366;BME280;4220;42.502;24.188;2023-02-28T06:14:41;95942.22;;;9.37;100.00
8366;BME280;4220;42.502;24.188;2023-02-28T06:17:09;95929.44;;;9.40;100.00
8366;BME280;4220;42.502;24.188;2023-02-28T06:19:37;95940.50;;;9.50;100.00
8366;BME280;4220;42.502;24.188;2023-02-28T06:22:07;95939.31;;;9.59;100.00
8366;BME280;4220;42.502;24.188;2023-02-28T06:24:34;95935.50;;;9.68;100.00
8366;BME280;4220;42.502;24.188;2023-02-28T06:27:01;95939.44;;;9.79;100.00
8366;BME280;4220;42.502;24.188;2023-02-28T06:29:30;95925.69;;;9.62;100.00
8366;BME280;4220;42.502;24.188;2023-02-28T06:31:57;95933.59;;;9.56;100.00
8366;BME280;4220;42.502;24.188;2023-02-28T06:34:24;95917.56;;;9.36;100.00
8366;BME280;4220;42.502;24.188;2023-02-28T06:36:52;95959.28;;;9.55;100.00
8366;BME280;4220;42.502;24.188;2023-02-28T06:39:20;95954.84;;;9.62;100.00
8366;BME280;4220;42.502;24.188;2023-02-28T06:41:47;95953.00;;;9.63;100.00
8366;BME280;4220;42.502;24.188;2023-02-28T06:44:15;95945.38;;;9.53;100.00
8366;BME280;4220;42.502;24.188;2023-02-28T06:46:43;95917.16;;;9.33;100.00
8366;BME280;4220;42.502;24.188;2023-02-28T06:49:11;95952.38;;;9.61;100.00
8366;BME280;4220;42.502;24.188;2023-02-28T06:51:39;95945.47;;;9.66;100.00
8366;BME280;4220;42.502;24.188;2023-02-28T06:54:07;95945.91;;;9.70;100.00
8366;BME280;4220;42.502;24.188;2023-02-28T06:56:36;95943.44;;;9.68;100.00
8366;BME280;4220;42.502;24.188;2023-02-28T06:59:03;95948.75;;;9.68;100.00
8366;BME280;4220;42.502;24.188;2023-02-28T07:01:30;95947.13;;;9.67;100.00
8366;BME280;4220;42.502;24.188;2023-02-28T07:03:58;95945.31;;;9.68;100.00
8366;BME280;4220;42.502;24.188;2023-02-28T07:06:25;95957.34;;;9.70;100.00
8366;BME280;4220;42.502;24.188;2023-02-28T07:08:53;95956.03;;;9.60;100.00
8366;BME280;4220;42.502;24.188;2023-02-28T07:11:21;95969.88;;;9.55;100.00
8366;BME280;4220;42.502;24.188;2023-02-28T07:13:52;95970.44;;;9.51;100.00
8366;BME280;4220;42.502;24.188;2023-02-28T07:16:19;95976.50;;;9.45;100.00
8366;BME280;4220;42.502;24.188;2023-02-28T07:18:46;95963.22;;;9.38;100.00
8366;BME280;4220;42.502;24.188;2023-02-28T07:21:13;95977.31;;;9.45;100.00
8366;BME280;4220;42.502;24.188;2023-02-28T07:23:40;95977.09;;;9.40;100.00
8366;BME280;4220;42.502;24.188;2023-02-28T07:26:11;95964.34;;;9.29;100.00
8366;BME280;4220;42.502;24.188;2023-02-28T07:28:40;95980.50;;;9.34;100.00
8366;BME280;4220;42.502;24.188;2023-02-28T07:31:09;95972.53;;;9.34;100.00
8366;BME280;4220;42.502;24.188;2023-02-28T07:33:37;95968.03;;;9.28;100.00
8366;BME280;4220;42.502;24.188;2023-02-28T07:36:06;95980.66;;;9.26;100.00
8366;BME280;4220;42.502;24.188;2023-02-28T07:38:34;95973.25;;;9.21;100.00
8366;BME280;4220;42.502;24.188;2023-02-28T07:41:01;95981.97;;;9.15;100.00
8366;BME280;4220;42.502;24.188;2023-02-28T07:43:29;95990.88;;;9.08;100.00
8366;BME280;4220;42.502;24.188;2023-02-28T07:46:01;95997.97;;;9.07;100.00
8366;BME280;4220;42.502;24.188;2023-02-28T07:48:30;95996.66;;;8.97;100.00
8366;BME280;4220;42.502;24.188;2023-02-28T07:50:57;95992.25;;;8.83;100.00
8366;BME280;4220;42.502;24.188;2023-02-28T07:53:24;95988.34;;;8.79;100.00
8366;BME280;4220;42.502;24.188;2023-02-28T07:55:54;95993.06;;;8.83;100.00
8366;BME280;4220;42.502;24.188;2023-02-28T07:58:21;95994.47;;;8.79;100.00
8366;BME280;4220;42.502;24.188;2023-02-28T08:00:49;95971.59;;;8.72;100.00
8366;BME280;4220;42.502;24.188;2023-02-28T08:03:16;95949.47;;;8.58;100.00
8366;BME280;4220;42.502;24.188;2023-02-28T08:05:45;95996.66;;;8.97;100.00
8366;BME280;4220;42.502;24.188;2023-02-28T08:08:13;95987.22;;;9.09;100.00
8366;BME280;4220;42.502;24.188;2023-02-28T08:10:39;96004.75;;;9.16;100.00
8366;BME280;4220;42.502;24.188;2023-02-28T08:13:07;96005.09;;;9.28;100.00
8366;BME280;4220;42.502;24.188;2023-02-28T08:15:34;96001.50;;;9.36;100.00
8366;BME280;4220;42.502;24.188;2023-02-28T08:18:01;96002.94;;;9.38;100.00
8366;BME280;4220;42.502;24.188;2023-02-28T08:20:28;96001.16;;;9.45;100.00
8366;BME280;4220;42.502;24.188;2023-02-28T08:22:57;96004.91;;;9.57;100.00
8366;BME280;4220;42.502;24.188;2023-02-28T08:25:24;95997.97;;;9.56;100.00
8366;BME280;4220;42.502;24.188;2023-02-28T08:27:51;95994.56;;;9.62;100.00
8366;BME280;4220;42.502;24.188;2023-02-28T08:30:18;95995.66;;;9.74;100.00
8366;BME280;4220;42.502;24.188;2023-02-28T08:32:45;95981.81;;;9.79;100.00
8366;BME280;4220;42.502;24.188;2023-02-28T08:35:12;95981.31;;;9.97;100.00
8366;BME280;4220;42.502;24.188;2023-02-28T08:37:39;95979.91;;;10.01;100.00
8366;BME280;4220;42.502;24.188;2023-02-28T08:40:08;95971.56;;;10.04;100.00
8366;BME280;4220;42.502;24.188;2023-02-28T08:42:35;95979.22;;;9.85;100.00
8366;BME280;4220;42.502;24.188;2023-02-28T08:45:03;95975.44;;;9.67;100.00
8366;BME280;4220;42.502;24.188;2023-02-28T08:47:30;95983.75;;;9.64;100.00
8366;BME280;4220;42.502;24.188;2023-02-28T08:49:57;95974.31;;;9.48;100.00
8366;BME280;4220;42.502;24.188;2023-02-28T08:52:23;95987.69;;;9.40;100.00
8366;BME280;4220;42.502;24.188;2023-02-28T08:54:50;95985.53;;;9.29;100.00
8366;BME280;4220;42.502;24.188;2023-02-28T08:57:18;95988.75;;;9.25;100.00
8366;BME280;4220;42.502;24.188;2023-02-28T08:59:45;95945.84;;;9.01;100.00
8366;BME280;4220;42.502;24.188;2023-02-28T09:02:12;95958.84;;;9.03;100.00
8366;BME280;4220;42.502;24.188;2023-02-28T09:04:39;95978.94;;;9.18;100.00
8366;BME280;4220;42.502;24.188;2023-02-28T09:07:07;95990.81;;;9.29;100.00
8366;BME280;4220;42.502;24.188;2023-02-28T09:09:34;95990.91;;;9.36;100.00
8366;BME280;4220;42.502;24.188;2023-02-28T09:12:00;95988.63;;;9.33;100.00
8366;BME280;4220;42.502;24.188;2023-02-28T09:14:29;95991.69;;;9.36;100.00
8366;BME280;4220;42.502;24.188;2023-02-28T09:16:56;95990.97;;;9.49;100.00
8366;BME280;4220;42.502;24.188;2023-02-28T09:19:23;95992.28;;;9.59;100.00
8366;BME280;4220;42.502;24.188;2023-02-28T09:21:49;95988.34;;;9.76;100.00
8366;BME280;4220;42.502;24.188;2023-02-28T09:24:17;95988.00;;;9.93;100.00
8366;BME280;4220;42.502;24.188;2023-02-28T09:26:45;95997.84;;;9.99;100.00
8366;BME280;4220;42.502;24.188;2023-02-28T09:29:12;95990.09;;;9.97;100.00
8366;BME280;4220;42.502;24.188;2023-02-28T09:31:43;95991.34;;;10.01;100.00
8366;BME280;4220;42.502;24.188;2023-02-28T09:34:10;95985.78;;;9.90;100.00
8366;BME280;4220;42.502;24.188;2023-02-28T09:36:37;95990.59;;;9.79;100.00
8366;BME280;4220;42.502;24.188;2023-02-28T09:39:04;95980.16;;;9.71;100.00
8366;BME280;4220;42.502;24.188;2023-02-28T09:41:38;95982.81;;;9.78;100.00
8366;BME280;4220;42.502;24.188;2023-02-28T09:44:16;95985.47;;;9.78;100.00
8366;BME280;4220;42.502;24.188;2023-02-28T09:46:48;95989.53;;;9.74;100.00
8366;BME280;4220;42.502;24.188;2023-02-28T09:49:22;95976.44;;;9.66;100.00
8366;BME280;4220;42.502;24.188;2023-02-28T09:51:51;95977.88;;;9.68;100.00
8366;BME280;4220;42.502;24.188;2023-02-28T09:54:23;95986.47;;;9.70;100.00
8366;BME280;4220;42.502;24.188;2023-02-28T09:56:54;95982.06;;;9.56;100.00
8366;BME280;4220;42.502;24.188;2023-02-28T09:59:43;95939.44;;;9.17;100.00
8366;BME280;4220;42.502;24.188;2023-02-28T10:02:46;95978.25;;;9.31;100.00
8366;BME280;4220;42.502;24.188;2023-02-28T10:05:16;95964.19;;;9.31;100.00
8366;BME280;4220;42.502;24.188;2023-02-28T10:07:56;95982.53;;;9.60;100.00
8366;BME280;4220;42.502;24.188;2023-02-28T10:10:30;95931.47;;;9.38;100.00
8366;BME280;4220;42.502;24.188;2023-02-28T10:13:02;95932.06;;;9.40;100.00
8366;BME280;4220;42.502;24.188;2023-02-28T10:15:32;95971.69;;;9.55;100.00
8366;BME280;4220;42.502;24.188;2023-02-28T10:18:05;95952.91;;;9.50;100.00
8366;BME280;4220;42.502;24.188;2023-02-28T10:20:39;95923.38;;;9.18;100.00
8366;BME280;4220;42.502;24.188;2023-02-28T10:26:28;95959.50;;;9.60;100.00
8366;BME280;4220;42.502;24.188;2023-02-28T10:28:57;95939.94;;;9.61;100.00
8366;BME280;4220;42.502;24.188;2023-02-28T10:31:24;95949.19;;;9.72;100.00
8366;BME280;4220;42.502;24.188;2023-02-28T10:33:53;95943.44;;;9.68;100.00
8366;BME280;4220;42.502;24.188;2023-02-28T10:36:21;95950.03;;;9.79;100.00
8366;BME280;4220;42.502;24.188;2023-02-28T10:38:48;95949.66;;;9.82;100.00
8366;BME280;4220;42.502;24.188;2023-02-28T10:41:27;95943.06;;;9.71;100.00
8366;BME280;4220;42.502;24.188;2023-02-28T10:44:13;95952.91;;;9.50;100.00
8366;BME280;4220;42.502;24.188;2023-02-28T10:46:41;95941.81;;;9.33;100.00
8366;BME280;4220;42.502;24.188;2023-02-28T10:49:17;95909.84;;;9.07;100.00
8366;BME280;4220;42.502;24.188;2023-02-28T10:51:47;95947.28;;;9.32;100.00
8366;BME280;4220;42.502;24.188;2023-02-28T10:54:16;95939.78;;;9.35;100.00
8366;BME280;4220;42.502;24.188;2023-02-28T10:56:44;95942.28;;;9.43;100.00
8366;BME280;4220;42.502;24.188;2023-02-28T10:59:28;95934.16;;;9.51;100.00
8366;BME280;4220;42.502;24.188;2023-02-28T11:01:56;95939.66;;;9.43;100.00
8366;BME280;4220;42.502;24.188;2023-02-28T11:04:35;95936.75;;;9.38;100.00
8366;BME280;4220;42.502;24.188;2023-02-28T11:07:06;95932.22;;;9.32;100.00
8366;BME280;4220;42.502;24.188;2023-02-28T11:09:45;95926.06;;;9.25;100.00
8366;BME280;4220;42.502;24.188;2023-02-28T11:12:20;95919.28;;;9.16;100.00
8366;BME280;4220;42.502;24.188;2023-02-28T11:14:50;95912.38;;;9.21;100.00
8366;BME280;4220;42.502;24.188;2023-02-28T11:17:21;95910.94;;;9.19;100.00
8366;BME280;4220;42.502;24.188;2023-02-28T11:19:51;95908.50;;;9.17;100.00
8366;BME280;4220;42.502;24.188;2023-02-28T11:22:22;95902.19;;;9.18;100.00
8366;BME280;4220;42.502;24.188;2023-02-28T11:24:51;95887.22;;;9.32;100.00
8366;BME280;4220;42.502;24.188;2023-02-28T11:27:43;95885.88;;;9.43;100.00
8366;BME280;4220;42.502;24.188;2023-02-28T11:30:32;95881.81;;;9.47;100.00
8366;BME280;4220;42.502;24.188;2023-02-28T11:32:59;95870.44;;;9.53;100.00
8366;BME280;4220;42.502;24.188;2023-02-28T11:35:30;95881.63;;;9.48;100.00
8366;BME280;4220;42.502;24.188;2023-02-28T11:38:00;95886.50;;;9.51;100.00
8366;BME280;4220;42.502;24.188;2023-02-28T11:40:36;95886.81;;;9.63;100.00
8366;BME280;4220;42.502;24.188;2023-02-28T11:43:18;95885.81;;;9.70;100.00
8366;BME280;4220;42.502;24.188;2023-02-28T11:46:00;95882.94;;;9.65;100.00
8366;BME280;4220;42.502;24.188;2023-02-28T11:48:36;95886.03;;;9.75;100.00
8366;BME280;4220;42.502;24.188;2023-02-28T11:51:14;95879.94;;;9.81;100.00
8366;BME280;4220;42.502;24.188;2023-02-28T11:54:04;95887.91;;;9.88;100.00
8366;BME280;4220;42.502;24.188;2023-02-28T11:56:37;95878.75;;;9.84;100.00
8366;BME280;4220;42.502;24.188;2023-02-28T11:59:30;95884.81;;;9.78;100.00
8366;BME280;4220;42.502;24.188;2023-02-28T12:02:16;95880.34;;;9.78;100.00
8366;BME280;4220;42.502;24.188;2023-02-28T12:04:54;95889.25;;;9.64;100.00
8366;BME280;4220;42.502;24.188;2023-02-28T12:07:33;95881.06;;;9.59;100.00
8366;BME280;4220;42.502;24.188;2023-02-28T12:10:06;95877.56;;;9.52;100.00
8366;BME280;4220;42.502;24.188;2023-02-28T12:12:44;95878.66;;;9.30;100.00
8366;BME280;4220;42.502;24.188;2023-02-28T12:15:47;95872.06;;;9.19;100.00
8366;BME280;4220;42.502;24.188;2023-02-28T12:18:27;95865.09;;;9.12;100.00
8366;BME280;4220;42.502;24.188;2023-02-28T12:21:01;95867.44;;;9.28;100.00
8366;BME280;4220;42.502;24.188;2023-02-28T12:23:59;95873.94;;;9.26;100.00
8366;BME280;4220;42.502;24.188;2023-02-28T12:26:34;95865.78;;;9.20;100.00
8366;BME280;4220;42.502;24.188;2023-02-28T12:29:10;95833.81;;;8.94;100.00
8366;BME280;4220;42.502;24.188;2023-02-28T12:31:42;95877.97;;;9.21;100.00
8366;BME280;4220;42.502;24.188;2023-02-28T12:34:14;95884.88;;;9.16;100.00
8366;BME280;4220;42.502;24.188;2023-02-28T12:36:43;95879.53;;;9.09;100.00
8366;BME280;4220;42.502;24.188;2023-02-28T12:39:16;95872.78;;;9.07;100.00
8366;BME280;4220;42.502;24.188;2023-02-28T12:41:48;95866.59;;;8.93;100.00
8366;BME280;4220;42.502;24.188;2023-02-28T12:44:20;95866.84;;;8.98;100.00
8366;BME280;4220;42.502;24.188;2023-02-28T12:46:50;95861.34;;;9.00;100.00
8366;BME280;4220;42.502;24.188;2023-02-28T12:49:23;95871.84;;;8.87;100.00
8366;BME280;4220;42.502;24.188;2023-02-28T12:51:52;95860.38;;;8.80;100.00
8366;BME280;4220;42.502;24.188;2023-02-28T12:54:24;95874.41;;;8.80;100.00
8366;BME280;4220;42.502;24.188;2023-02-28T12:56:56;95869.13;;;8.80;100.00
8366;BME280;4220;42.502;24.188;2023-02-28T12:59:34;95864.28;;;8.84;100.00
8366;BME280;4220;42.502;24.188;2023-02-28T13:05:39;95869.56;;;8.84;100.00
8366;BME280;4220;42.502;24.188;2023-02-28T13:08:30;95862.53;;;8.70;100.00
8366;BME280;4220;42.502;24.188;2023-02-28T13:11:04;95867.84;;;8.70;100.00
8366;BME280;4220;42.502;24.188;2023-02-28T13:13:31;95861.53;;;8.71;100.00
8366;BME280;4220;42.502;24.188;2023-02-28T13:16:00;95853.72;;;8.63;100.00
8366;BME280;4220;42.502;24.188;2023-02-28T13:18:31;95849.44;;;8.62;100.00
8366;BME280;4220;42.502;24.188;2023-02-28T13:21:00;95848.19;;;8.57;100.00
8366;BME280;4220;42.502;24.188;2023-02-28T13:23:40;95857.13;;;8.57;100.00
8366;BME280;4220;42.502;24.188;2023-02-28T13:26:08;95858.13;;;8.55;100.00
8366;BME280;4220;42.502;24.188;2023-02-28T13:29:11;95847.88;;;8.46;100.00
8366;BME280;4220;42.502;24.188;2023-02-28T13:32:19;95844.16;;;8.40;100.00
8366;BME280;4220;42.502;24.188;2023-02-28T13:35:14;95846.94;;;8.53;100.00
8366;BME280;4220;42.502;24.188;2023-02-28T13:37:46;95845.72;;;8.56;100.00